Airfield :
LOGIN :

Register | Disclaimer

   EN    FR    IT 

 










Legend :    VFR   Marginal VFR   IFR   Intensive IFR   Very Intensive IFR
Visi :
Ceiling :
>= 8 km
>= 3000ft
5 to 8 km
1000 to 3000 ft
1500m to 5 km
500 to 1000 ft
800 to 1500m
200 to 500 ft
< 800m
< 200 ft
Symbols :   Thunderstorms  Fog  Heavy snow  Heavy precipitations  Wind > 20 kt
SIGMETs :     Misc.  Thunderstorms  Icing  Turbulence  Mountain Waves  Volcanic Ashes







- Airport Elevation : 127 ft
- IATA code : JTR


LGSR - Santorini

CURRENT METAR :
  • 241650Z 23006KT CAVOK 24/18 Q1013

EXPIRED METARs :
  • 241620Z 26006KT CAVOK 24/18 Q1013
  • 241550Z 25006KT CAVOK 25/17 Q1013
  • 241520Z 27006KT CAVOK 26/17 Q1013
  • 241450Z 07004KT CAVOK 26/18 Q1013
  • 241420Z 07005KT 030V110 CAVOK 26/18 Q1013

TAF TAF LGSR
Valid from the 24 at 12:00 until the 25 at 12:00 UTC


241100Z 2412/2512 26012KT 9999 FEW025
BECMG 2504/2506 02012KT
BECMG 2508/2510 02012G22KT
No reported NOTAMs for that airfield.



MET'MAP, your aeronautical weather chart ! - Copyright ORBIFLY December 2007 - Disclaimer

ORBIFLY MET'MAP TEAM :

Programming & Development : Alexandra Zaïnal
Concept & Development : Baudouin d'Aumeries
Co-Development & Prog : Marc-Olivier Méhu
Technical & hardware support : Manuel Goepfert

Contact : metmap@orbifly.com




SOURCES & CREDITS :

   NOAA